This is the latest recevied weather packets stored in our database for station/object KBVX. If no packets are shown the sender has not sent any weather packets the latest 10 day(s).
| Time | Temp. | Humidity | Pressure | Rain* | Wind** | Luminosity | Snow |
|---|---|---|---|---|---|---|---|
| 1777688609 | 12.78° C | 66% | 1017.9 hPa | - | - | - | - |
| 1777688013 | 12.78° C | 66% | 1017.9 hPa | - | - | - | - |
| 1777674210 | 20° C | 30% | 1015.2 hPa | - | - | - | - |
| 1777671814 | 20° C | 28% | 1015.2 hPa | - | - | - | - |
| 1777670614 | 20° C | 28% | 1015.2 hPa | - | - | - | - |
| 1777670007 | 20° C | 28% | 1015.2 hPa | - | - | - | - |
| 1777667010 | 18.89° C | 29% | 1016.9 hPa | - | - | - | - |
| 1777666408 | 18.89° C | 29% | 1016.9 hPa | - | - | - | - |
| 1777664011 | 18.89° C | 32% | 1017.9 hPa | - | - | - | - |
| 1777662807 | 18.89° C | 32% | 1017.9 hPa | - | - | - | - |
| 1777659810 | 17.78° C | 36% | 1019 hPa | - | - | - | - |
| 1777659211 | 17.78° C | 36% | 1019 hPa | - | - | - | - |
| 1777656811 | 16.67° C | 45% | 1019 hPa | - | - | - | - |
| 1777656210 | 16.67° C | 45% | 1019 hPa | - | - | - | - |
| 1777655609 | 16.67° C | 45% | 1019 hPa | - | - | - | - |
| 1777655007 | 16.67° C | 45% | 1019 hPa | - | - | - | - |
| 1777654408 | 16.67° C | 45% | 1019.3 hPa | - | - | - | - |
| 1777653207 | 16.67° C | 45% | 1019.3 hPa | - | - | - | - |
| 1777652608 | 16.67° C | 45% | 1019.3 hPa | - | - | - | - |
| 1777652011 | 16.67° C | 45% | 1019.3 hPa | - | - | - | - |
| 1777650809 | 15° C | 44% | 1019.6 hPa | - | - | - | - |
| 1777650210 | 15° C | 44% | 1019.6 hPa | - | - | - | - |
| 1777649610 | 15° C | 44% | 1019.6 hPa | - | - | - | - |
| 1777649007 | 15° C | 44% | 1019.6 hPa | - | - | - | - |
| 1777648408 | 15° C | 44% | 1019.6 hPa | - | - | - | - |
* Rain since midnight (hover to see other rain measurements)
** Current wind speed in m/s (hover to see current wind gust speed)